createdAt,value
2023-03-31T00:00:53.458Z,99660.66
2023-03-31T00:03:24.399Z,99658.97
2023-03-31T00:05:58.378Z,99658.16
2023-03-31T00:08:30.332Z,99660.13
2023-03-31T00:11:01.732Z,99655.31
2023-03-31T00:13:29.987Z,99649.00
2023-03-31T00:15:59.079Z,99642.81
2023-03-31T00:18:26.972Z,99642.97
2023-03-31T00:20:57.924Z,99633.13
2023-03-31T00:23:29.136Z,99631.00
2023-03-31T00:25:56.813Z,99625.66
2023-03-31T00:28:24.472Z,99628.19
2023-03-31T00:30:52.965Z,99619.50
2023-03-31T00:33:21.243Z,99625.81
2023-03-31T00:35:52.606Z,99620.53
2023-03-31T00:38:21.868Z,99616.13
2023-03-31T00:40:53.693Z,99616.56
2023-03-31T00:43:33.145Z,99605.19
2023-03-31T00:46:15.502Z,99588.81
2023-03-31T00:48:49.051Z,99590.94
2023-03-31T00:51:17.100Z,99583.91
2023-03-31T00:53:45.231Z,99580.28
2023-03-31T00:56:17.289Z,99578.59
2023-03-31T00:58:47.390Z,99575.91
2023-03-31T01:01:19.789Z,99573.78
2023-03-31T01:03:48.449Z,99561.97
2023-03-31T01:06:19.817Z,99555.19
2023-03-31T01:08:50.037Z,99549.41
2023-03-31T01:11:23.025Z,99548.25
2023-03-31T01:13:56.149Z,99547.78
2023-03-31T01:16:24.362Z,99548.47
2023-03-31T01:18:52.263Z,99541.28
2023-03-31T01:22:16.601Z,99537.66
2023-03-31T01:25:14.383Z,99531.47
2023-03-31T01:28:03.442Z,99526.97
2023-03-31T01:31:14.677Z,99531.47
2023-03-31T01:34:16.002Z,99531.00
2023-03-31T01:37:14.754Z,99531.16
2023-03-31T01:40:18.047Z,99522.16
2023-03-31T01:42:53.458Z,99521.16
2023-03-31T01:45:33.880Z,99510.78
2023-03-31T01:48:08.663Z,99514.94
2023-03-31T01:50:40.301Z,99500.63
2023-03-31T01:53:16.821Z,99494.66
2023-03-31T01:55:52.340Z,99497.00
2023-03-31T01:58:23.976Z,99492.47
2023-03-31T02:00:57.035Z,99485.63
2023-03-31T02:03:32.998Z,99493.63
2023-03-31T02:06:08.768Z,99487.63
2023-03-31T02:08:42.019Z,99479.81
2023-03-31T02:11:11.412Z,99481.28
2023-03-31T02:13:44.568Z,99475.97
2023-03-31T02:16:18.942Z,99476.75
2023-03-31T02:18:50.224Z,99470.72
2023-03-31T02:21:18.432Z,99456.97
2023-03-31T02:23:48.580Z,99446.63
2023-03-31T02:26:22.803Z,99445.63
2023-03-31T02:28:50.888Z,99444.25
2023-03-31T02:31:28.748Z,99438.88
2023-03-31T02:33:56.740Z,99445.66
2023-03-31T02:36:25.367Z,99443.31
2023-03-31T02:38:57.795Z,99435.78
2023-03-31T02:41:26.810Z,99425.41
2023-03-31T02:43:54.570Z,99414.06
2023-03-31T02:46:22.987Z,99405.38
2023-03-31T02:48:53.907Z,99407.19
2023-03-31T02:51:59.450Z,99388.69
2023-03-31T02:54:44.466Z,99374.66
2023-03-31T02:57:35.696Z,99367.78
2023-03-31T03:00:10.309Z,99366.13
2023-03-31T03:02:52.860Z,99357.25
2023-03-31T03:05:29.564Z,99353.06
2023-03-31T03:08:08.077Z,99339.91
2023-03-31T03:10:45.992Z,99341.72
2023-03-31T03:13:22.481Z,99336.56
2023-03-31T03:15:57.279Z,99320.69
2023-03-31T03:18:24.880Z,99324.03
2023-03-31T03:20:52.786Z,99295.81
2023-03-31T03:23:20.680Z,99279.31
2023-03-31T03:25:48.356Z,99272.28
2023-03-31T03:28:17.565Z,99263.63
2023-03-31T03:30:45.944Z,99264.44
2023-03-31T03:33:17.291Z,99248.91
2023-03-31T03:35:45.264Z,99246.59
2023-03-31T03:38:12.989Z,99233.94
2023-03-31T03:40:40.664Z,99229.91
2023-03-31T03:43:08.312Z,99218.53
2023-03-31T03:45:37.305Z,99208.03
2023-03-31T03:48:05.137Z,99189.69
2023-03-31T03:50:36.377Z,99189.16
2023-03-31T03:53:04.010Z,99182.31
2023-03-31T03:55:31.840Z,99197.63
2023-03-31T03:58:00.344Z,99216.78
2023-03-31T04:00:27.998Z,99224.94
2023-03-31T04:02:57.081Z,99225.22
2023-03-31T04:05:24.886Z,99214.75
2023-03-31T04:07:52.673Z,99213.75
2023-03-31T04:10:20.466Z,99212.09
2023-03-31T04:12:48.103Z,99210.72
2023-03-31T04:15:15.836Z,99197.53
2023-03-31T04:17:50.895Z,99175.53
2023-03-31T04:20:20.256Z,99178.50
2023-03-31T04:22:50.757Z,99170.69
2023-03-31T04:25:18.763Z,99174.34
2023-03-31T04:27:50.773Z,99171.00
2023-03-31T04:30:23.570Z,99174.50
2023-03-31T04:32:51.750Z,99177.47
2023-03-31T04:35:21.678Z,99174.97
2023-03-31T04:37:49.384Z,99171.47
2023-03-31T04:40:17.829Z,99165.28
2023-03-31T04:42:45.989Z,99170.94
2023-03-31T04:45:15.473Z,99161.25
2023-03-31T04:47:43.511Z,99170.41
2023-03-31T04:50:16.189Z,99159.91
2023-03-31T04:52:47.410Z,99154.91
2023-03-31T04:55:15.166Z,99157.25
2023-03-31T04:57:43.136Z,99159.91
2023-03-31T05:00:11.944Z,99160.38
2023-03-31T05:02:39.738Z,99154.53
2023-03-31T05:05:07.891Z,99162.84
2023-03-31T05:07:35.591Z,99150.19
2023-03-31T05:10:05.385Z,99140.84
2023-03-31T05:12:36.030Z,99146.53
2023-03-31T05:15:04.444Z,99135.00
2023-03-31T05:17:32.885Z,99128.47
2023-03-31T05:20:01.120Z,99129.91
2023-03-31T05:22:29.229Z,99115.91
2023-03-31T05:24:56.879Z,99110.06
2023-03-31T05:27:25.998Z,99102.00
2023-03-31T05:29:53.681Z,99091.34
2023-03-31T05:32:21.372Z,99095.66
2023-03-31T05:34:52.100Z,99086.44
2023-03-31T05:37:21.003Z,99079.63
2023-03-31T05:39:48.810Z,99081.06
2023-03-31T05:42:16.601Z,99077.53
2023-03-31T05:44:45.735Z,99080.00
2023-03-31T05:47:15.402Z,99073.97
2023-03-31T05:49:43.240Z,99072.34
2023-03-31T05:52:12.409Z,99062.28
2023-03-31T05:54:40.618Z,99022.50
2023-03-31T05:57:08.311Z,99012.47
2023-03-31T05:59:36.231Z,98997.63
2023-03-31T06:02:05.738Z,99000.47
2023-03-31T06:04:33.594Z,98998.50
2023-03-31T06:07:01.360Z,98999.09
2023-03-31T06:09:29.355Z,98998.72
2023-03-31T06:11:57.040Z,98981.41
2023-03-31T06:14:24.841Z,98978.06
2023-03-31T06:16:52.730Z,98971.72
2023-03-31T06:19:22.033Z,98964.75
2023-03-31T06:21:49.794Z,98949.63
2023-03-31T06:24:17.540Z,98958.44
2023-03-31T06:26:45.321Z,98948.47
2023-03-31T06:29:13.037Z,98965.28
2023-03-31T06:31:40.890Z,98969.59
2023-03-31T06:34:08.733Z,98968.78
2023-03-31T06:36:37.774Z,98976.13
2023-03-31T06:39:05.509Z,98972.50
2023-03-31T06:41:33.320Z,98961.91
2023-03-31T06:44:01.077Z,98959.25
2023-03-31T06:46:28.856Z,98963.22
2023-03-31T06:48:56.576Z,98954.91
2023-03-31T06:51:24.304Z,98942.44
2023-03-31T06:53:53.484Z,98948.91
2023-03-31T06:56:21.920Z,98948.28
2023-03-31T06:58:49.907Z,98947.97
2023-03-31T07:01:17.723Z,98953.59
2023-03-31T07:03:45.483Z,98960.44
2023-03-31T07:06:13.273Z,98951.47
2023-03-31T07:08:41.034Z,98941.75
2023-03-31T07:11:10.232Z,98937.56
2023-03-31T07:13:38.240Z,98938.91
2023-03-31T07:16:08.095Z,98951.06
2023-03-31T07:18:36.681Z,98950.25
2023-03-31T07:21:09.037Z,98941.06
2023-03-31T07:23:37.832Z,98937.72
2023-03-31T07:26:06.456Z,98945.56
2023-03-31T07:28:36.144Z,98941.91
2023-03-31T07:31:04.220Z,98942.94
2023-03-31T07:33:32.041Z,98943.31
2023-03-31T07:36:11.020Z,98944.03
2023-03-31T07:38:40.263Z,98950.44
2023-03-31T07:41:11.917Z,98943.41
2023-03-31T07:43:41.423Z,98941.47
2023-03-31T07:46:16.668Z,98943.69
2023-03-31T07:48:46.384Z,98949.19
2023-03-31T07:51:14.724Z,98943.38
2023-03-31T07:53:42.625Z,98955.53
2023-03-31T07:56:10.584Z,98949.19
2023-03-31T07:58:38.370Z,98948.84
2023-03-31T08:01:08.251Z,98955.88
2023-03-31T08:03:36.550Z,98961.00
2023-03-31T08:06:04.629Z,98979.38
2023-03-31T08:08:33.688Z,98978.69
2023-03-31T08:11:04.374Z,98966.16
2023-03-31T08:13:32.401Z,98974.81
2023-03-31T08:16:00.281Z,98971.94
2023-03-31T08:18:29.440Z,98976.75
2023-03-31T08:20:57.215Z,98963.09
2023-03-31T08:23:24.979Z,98971.72
2023-03-31T08:25:53.249Z,98965.50
2023-03-31T08:28:23.037Z,98966.38
2023-03-31T08:30:50.926Z,98955.06
2023-03-31T08:33:19.544Z,98942.56
2023-03-31T08:35:48.986Z,98941.59
2023-03-31T08:38:16.844Z,98930.94
2023-03-31T08:40:47.983Z,98943.09
2023-03-31T08:43:26.411Z,98957.41
2023-03-31T08:45:56.373Z,98940.78
2023-03-31T08:48:28.358Z,98936.31
2023-03-31T08:51:02.306Z,98934.78
2023-03-31T08:53:34.027Z,98938.94
2023-03-31T08:56:01.971Z,98937.25
2023-03-31T08:58:37.913Z,98932.44
2023-03-31T09:01:17.019Z,98940.06
2023-03-31T09:04:13.766Z,98930.56
2023-03-31T09:06:50.560Z,98959.88
2023-03-31T09:09:27.315Z,99008.47
2023-03-31T09:11:58.614Z,98998.03
2023-03-31T09:14:31.390Z,98981.00
2023-03-31T09:17:03.547Z,98996.91
2023-03-31T09:19:38.055Z,98989.63
2023-03-31T09:22:14.577Z,98992.41
2023-03-31T09:24:49.640Z,98969.88
2023-03-31T09:27:17.926Z,99004.00
2023-03-31T09:29:51.374Z,99000.81
2023-03-31T09:32:21.407Z,98990.50
2023-03-31T09:34:53.468Z,98961.69
2023-03-31T09:37:22.747Z,98952.97
2023-03-31T09:39:50.907Z,98941.53
2023-03-31T09:42:20.459Z,98928.25
2023-03-31T09:44:50.670Z,98917.47
2023-03-31T09:47:27.077Z,98903.44
2023-03-31T09:49:54.815Z,98893.47
2023-03-31T09:52:30.622Z,98894.00
2023-03-31T09:55:01.516Z,98917.00
2023-03-31T09:57:33.522Z,98926.13
2023-03-31T10:00:16.460Z,98912.53
2023-03-31T10:02:49.564Z,98929.31
2023-03-31T10:05:37.778Z,98896.97
2023-03-31T10:08:21.856Z,98891.84
2023-03-31T10:10:51.454Z,98882.34
2023-03-31T10:13:23.290Z,98874.28
2023-03-31T10:15:54.568Z,98881.13
2023-03-31T10:18:32.624Z,98891.81
2023-03-31T10:21:01.750Z,98873.09
2023-03-31T10:23:33.330Z,98862.25
2023-03-31T10:26:02.652Z,98857.50
2023-03-31T10:28:35.151Z,98851.41
2023-03-31T10:31:04.334Z,98847.78
2023-03-31T10:33:35.570Z,98829.47
2023-03-31T10:36:09.415Z,98826.50
2023-03-31T10:38:42.679Z,98843.53
2023-03-31T10:41:11.145Z,98837.38
2023-03-31T10:43:41.843Z,98838.19
2023-03-31T10:46:10.923Z,98831.66
2023-03-31T10:48:41.416Z,98837.31
2023-03-31T10:51:16.377Z,98833.97
2023-03-31T10:53:47.888Z,98842.44
2023-03-31T10:56:35.474Z,98868.00
2023-03-31T10:59:29.668Z,98865.63
2023-03-31T11:02:12.851Z,98856.81
2023-03-31T11:04:52.826Z,98844.53
2023-03-31T11:07:41.775Z,98825.00
2023-03-31T11:10:26.886Z,98808.22
2023-03-31T11:13:00.460Z,98823.19
2023-03-31T11:15:35.392Z,98837.47
2023-03-31T11:18:16.299Z,98834.81
2023-03-31T11:20:56.297Z,98840.81
2023-03-31T11:23:31.619Z,98829.03
2023-03-31T11:26:04.051Z,98825.03
2023-03-31T11:28:43.892Z,98815.50
2023-03-31T11:31:29.318Z,98811.66
2023-03-31T11:34:41.650Z,98807.09
2023-03-31T11:37:32.273Z,98803.69
2023-03-31T11:40:16.762Z,98809.25
2023-03-31T11:42:51.788Z,98819.34
2023-03-31T11:45:22.862Z,98833.63
2023-03-31T11:47:56.246Z,98837.16
2023-03-31T11:50:28.388Z,98840.97
2023-03-31T11:53:01.073Z,98845.97
2023-03-31T11:55:31.748Z,98837.44
2023-03-31T11:58:05.590Z,98838.75
2023-03-31T12:05:44.888Z,98830.03
2023-03-31T12:08:19.130Z,98826.53
2023-03-31T12:10:52.386Z,98824.63
2023-03-31T12:13:46.203Z,98819.34
2023-03-31T12:16:18.352Z,98802.50
2023-03-31T12:18:57.867Z,98793.78
2023-03-31T12:21:28.872Z,98786.81
2023-03-31T12:23:56.598Z,98780.75
2023-03-31T12:26:38.654Z,98790.63
2023-03-31T12:29:16.124Z,98788.13
2023-03-31T12:31:47.089Z,98784.19
2023-03-31T12:34:18.103Z,98789.72
2023-03-31T12:36:57.545Z,98791.28
2023-03-31T12:39:36.349Z,98805.44
2023-03-31T12:42:37.210Z,98797.03
2023-03-31T12:45:16.562Z,98804.63
2023-03-31T12:48:02.276Z,98800.16
2023-03-31T12:50:42.948Z,98782.72
2023-03-31T12:53:23.355Z,98783.84
2023-03-31T12:55:57.832Z,98777.94
2023-03-31T12:58:41.224Z,98778.03
2023-03-31T13:01:16.843Z,98775.78
2023-03-31T13:03:50.834Z,98765.66
2023-03-31T13:06:53.874Z,98768.78
2023-03-31T13:09:42.557Z,98761.94
2023-03-31T13:12:15.962Z,98763.06
2023-03-31T13:14:45.601Z,98760.75
2023-03-31T13:17:23.635Z,98757.34
2023-03-31T13:19:51.764Z,98761.84
2023-03-31T13:22:37.365Z,98773.66
2023-03-31T13:25:28.787Z,98769.53
2023-03-31T13:27:57.428Z,98766.19
2023-03-31T13:30:46.352Z,98767.59
2023-03-31T13:33:18.341Z,98758.81
2023-03-31T13:35:49.363Z,98759.09
2023-03-31T13:38:27.083Z,98751.88
2023-03-31T13:41:08.615Z,98749.22
2023-03-31T13:44:10.577Z,98749.59
2023-03-31T13:46:52.194Z,98747.19
2023-03-31T13:49:54.031Z,98754.22
2023-03-31T13:52:32.295Z,98767.13
2023-03-31T13:55:48.633Z,98768.03
2023-03-31T13:58:34.107Z,98716.41
2023-03-31T14:01:26.674Z,98711.66
2023-03-31T14:04:05.852Z,98695.41
2023-03-31T14:06:37.755Z,98712.16
2023-03-31T14:09:08.934Z,98714.94
2023-03-31T14:11:36.838Z,98723.25
2023-03-31T14:14:07.574Z,98737.63
2023-03-31T14:16:39.032Z,98729.00
2023-03-31T14:19:34.134Z,98736.38
2023-03-31T14:22:12.239Z,98728.47
2023-03-31T14:24:45.908Z,98722.06
2023-03-31T14:27:24.098Z,98736.38
2023-03-31T14:30:00.544Z,98726.63
2023-03-31T14:32:38.594Z,98723.47
2023-03-31T14:35:26.633Z,98715.72
2023-03-31T14:37:57.082Z,98712.00
2023-03-31T14:40:25.795Z,98710.81
2023-03-31T14:42:53.638Z,98718.84
2023-03-31T14:45:25.380Z,98711.00
2023-03-31T14:47:58.509Z,98722.84
2023-03-31T14:50:32.603Z,98727.41
2023-03-31T14:53:02.756Z,98733.06
2023-03-31T14:55:54.329Z,98728.44
2023-03-31T14:58:28.006Z,98730.44
2023-03-31T15:00:56.833Z,98728.31
2023-03-31T15:03:27.468Z,98722.03
2023-03-31T15:05:59.626Z,98715.19
2023-03-31T15:08:30.493Z,98713.03
2023-03-31T15:11:11.975Z,98710.75
2023-03-31T15:13:56.652Z,98712.94
2023-03-31T15:16:36.539Z,98711.28
2023-03-31T15:19:13.114Z,98707.25
2023-03-31T15:21:40.914Z,98701.19
2023-03-31T15:24:13.232Z,98715.13
2023-03-31T15:26:46.002Z,98710.03
2023-03-31T15:29:18.251Z,98717.59
2023-03-31T15:31:46.718Z,98712.66
2023-03-31T15:34:22.958Z,98718.31
2023-03-31T15:36:50.999Z,98713.09
2023-03-31T15:39:20.102Z,98711.16
2023-03-31T15:41:49.466Z,98715.59
2023-03-31T15:44:39.648Z,98718.09
2023-03-31T15:47:13.824Z,98711.13
2023-03-31T15:49:51.166Z,98704.91
2023-03-31T15:52:25.877Z,98700.97
2023-03-31T15:54:55.273Z,98711.38
2023-03-31T15:57:31.658Z,98703.91
2023-03-31T16:00:00.450Z,98699.06
2023-03-31T16:02:39.655Z,98707.88
2023-03-31T16:05:13.916Z,98705.75
2023-03-31T16:07:52.487Z,98712.94
2023-03-31T16:10:23.426Z,98720.06
2023-03-31T16:12:55.993Z,98710.25
2023-03-31T16:15:33.823Z,98717.94
2023-03-31T16:18:06.530Z,98708.63
2023-03-31T16:20:37.282Z,98711.31
2023-03-31T16:23:15.853Z,98710.19
2023-03-31T16:25:46.214Z,98714.22
2023-03-31T16:28:17.861Z,98710.84
2023-03-31T16:30:46.687Z,98709.97
2023-03-31T16:33:17.581Z,98714.88
2023-03-31T16:35:49.012Z,98718.38
2023-03-31T16:38:19.008Z,98720.72
2023-03-31T16:40:50.730Z,98722.94
2023-03-31T16:43:20.046Z,98710.41
2023-03-31T16:45:49.583Z,98720.28
2023-03-31T16:48:18.801Z,98728.28
2023-03-31T16:50:47.718Z,98733.75
2023-03-31T16:53:16.100Z,98719.38
2023-03-31T16:55:44.030Z,98710.06
2023-03-31T16:58:13.153Z,98715.38
2023-03-31T17:00:42.056Z,98721.59
2023-03-31T17:03:11.763Z,98716.91
2023-03-31T17:05:41.162Z,98722.94
2023-03-31T17:08:10.190Z,98723.06
2023-03-31T17:10:39.152Z,98727.09
2023-03-31T17:13:07.251Z,98726.06
2023-03-31T17:15:37.801Z,98726.22
2023-03-31T17:18:07.285Z,98726.78
2023-03-31T17:20:35.643Z,98727.47
2023-03-31T17:23:04.413Z,98725.66
2023-03-31T17:25:32.970Z,98730.50
2023-03-31T17:28:01.479Z,98730.53
2023-03-31T17:30:29.620Z,98737.50
2023-03-31T17:33:00.813Z,98736.50
2023-03-31T17:35:28.819Z,98747.22
2023-03-31T17:37:56.617Z,98755.03
2023-03-31T17:40:26.863Z,98757.22
2023-03-31T17:42:55.707Z,98759.22
2023-03-31T17:45:23.770Z,98769.75
2023-03-31T17:47:51.768Z,98771.78
2023-03-31T17:50:20.991Z,98755.44
2023-03-31T17:52:48.911Z,98755.09
2023-03-31T17:55:17.228Z,98769.28
2023-03-31T17:57:44.875Z,98764.09
2023-03-31T18:00:15.118Z,98778.97
2023-03-31T18:02:43.072Z,98782.34
2023-03-31T18:05:11.528Z,98781.84
2023-03-31T18:07:41.368Z,98785.47
2023-03-31T18:10:10.715Z,98787.47
2023-03-31T18:12:38.749Z,98790.50
2023-03-31T18:15:07.847Z,98789.66
2023-03-31T18:17:36.560Z,98788.16
2023-03-31T18:20:05.508Z,98787.81
2023-03-31T18:22:33.773Z,98789.97
2023-03-31T18:25:02.818Z,98786.31
2023-03-31T18:27:30.868Z,98785.84
2023-03-31T18:29:58.636Z,98789.97
2023-03-31T18:32:26.444Z,98793.16
2023-03-31T18:34:54.178Z,98789.84
2023-03-31T18:37:22.341Z,98785.84
2023-03-31T18:39:50.542Z,98792.47
2023-03-31T18:42:25.008Z,98777.81
2023-03-31T18:44:53.337Z,98782.34
2023-03-31T18:47:21.788Z,98787.19
2023-03-31T18:49:53.775Z,98776.34
2023-03-31T18:52:22.243Z,98790.34
2023-03-31T18:54:51.310Z,98800.81
2023-03-31T18:57:20.537Z,98817.50
2023-03-31T18:59:48.389Z,98810.16
2023-03-31T19:02:17.934Z,98809.47
2023-03-31T19:04:46.233Z,98802.16
2023-03-31T19:07:13.909Z,98819.34
2023-03-31T19:09:41.631Z,98815.69
2023-03-31T19:12:09.325Z,98815.03
2023-03-31T19:14:38.469Z,98821.53
2023-03-31T19:17:06.252Z,98805.03
2023-03-31T19:19:33.945Z,98804.38
2023-03-31T19:22:02.014Z,98808.69
2023-03-31T19:24:29.818Z,98797.38
2023-03-31T19:26:57.760Z,98805.34
2023-03-31T19:29:27.755Z,98796.84
2023-03-31T19:31:56.836Z,98810.97
2023-03-31T19:34:24.514Z,98814.66
2023-03-31T19:36:52.255Z,98818.97
2023-03-31T19:39:19.916Z,98821.47
2023-03-31T19:41:48.359Z,98816.63
2023-03-31T19:44:16.401Z,98823.75
2023-03-31T19:46:44.160Z,98820.25
2023-03-31T19:49:13.452Z,98829.88
2023-03-31T19:51:41.283Z,98819.56
2023-03-31T19:54:11.412Z,98821.56
2023-03-31T19:56:39.469Z,98817.88
2023-03-31T19:59:07.567Z,98810.53
2023-03-31T20:01:35.758Z,98815.34
2023-03-31T20:04:03.711Z,98808.53
2023-03-31T20:06:35.287Z,98808.38
2023-03-31T20:09:06.353Z,98808.41
2023-03-31T20:11:34.514Z,98807.88
2023-03-31T20:14:03.266Z,98804.56
2023-03-31T20:16:32.912Z,98804.56
2023-03-31T20:19:04.129Z,98815.47
2023-03-31T20:21:36.526Z,98802.81
2023-03-31T20:24:04.799Z,98814.13
2023-03-31T20:26:35.140Z,98815.25
2023-03-31T20:29:04.087Z,98816.25
2023-03-31T20:31:36.367Z,98802.94
2023-03-31T20:34:05.898Z,98806.94
2023-03-31T20:36:34.944Z,98810.50
2023-03-31T20:39:04.292Z,98814.28
2023-03-31T20:41:32.066Z,98814.63
2023-03-31T20:43:59.778Z,98810.16
2023-03-31T20:46:28.256Z,98818.50
2023-03-31T20:48:58.380Z,98804.81
2023-03-31T20:51:28.176Z,98808.78
2023-03-31T20:53:59.409Z,98816.09
2023-03-31T20:56:29.157Z,98807.63
2023-03-31T20:58:58.996Z,98815.25
2023-03-31T21:01:28.578Z,98816.41
2023-03-31T21:04:00.693Z,98821.72
2023-03-31T21:06:30.245Z,98824.66
2023-03-31T21:08:59.776Z,98828.19
2023-03-31T21:11:28.172Z,98824.47
2023-03-31T21:13:56.296Z,98840.94
2023-03-31T21:16:24.285Z,98840.78
2023-03-31T21:18:54.866Z,98834.63
2023-03-31T21:21:24.476Z,98838.63
2023-03-31T21:23:52.662Z,98844.16
2023-03-31T21:26:22.854Z,98833.50
2023-03-31T21:28:54.017Z,98834.75
2023-03-31T21:31:24.027Z,98822.44
2023-03-31T21:33:52.531Z,98827.75
2023-03-31T21:36:23.152Z,98826.09
2023-03-31T21:38:52.053Z,98817.75
2023-03-31T21:41:24.175Z,98816.63
2023-03-31T21:43:53.494Z,98824.28
2023-03-31T21:46:23.467Z,98814.97
2023-03-31T21:48:51.771Z,98817.31
2023-03-31T21:51:21.945Z,98823.47
2023-03-31T21:53:50.227Z,98823.47
2023-03-31T21:56:18.064Z,98820.78
2023-03-31T21:58:47.189Z,98837.97
2023-03-31T22:01:15.462Z,98824.00
2023-03-31T22:03:43.265Z,98835.97
2023-03-31T22:06:11.580Z,98837.81
2023-03-31T22:08:40.583Z,98832.13
2023-03-31T22:11:10.901Z,98843.63
2023-03-31T22:13:38.729Z,98830.34
2023-03-31T22:16:17.024Z,98835.97
2023-03-31T22:18:45.057Z,98836.81
2023-03-31T22:21:18.542Z,98817.19
2023-03-31T22:23:46.383Z,98831.16
2023-03-31T22:26:14.259Z,98830.66
2023-03-31T22:28:42.032Z,98827.66
2023-03-31T22:31:11.345Z,98824.81
2023-03-31T22:33:39.070Z,98831.84
2023-03-31T22:36:07.393Z,98842.97
2023-03-31T22:38:35.281Z,98845.78
2023-03-31T22:41:04.494Z,98842.28
2023-03-31T22:43:33.731Z,98839.09
2023-03-31T22:46:04.705Z,98839.59
2023-03-31T22:48:33.779Z,98844.13
2023-03-31T22:51:04.895Z,98841.94
2023-03-31T22:53:33.122Z,98841.81
2023-03-31T22:56:06.149Z,98846.41
2023-03-31T22:58:33.882Z,98847.06
2023-03-31T23:01:02.646Z,98852.41
2023-03-31T23:03:30.995Z,98846.91
2023-03-31T23:06:03.189Z,98853.13
2023-03-31T23:08:31.130Z,98857.72
2023-03-31T23:11:00.009Z,98853.56
2023-03-31T23:13:28.482Z,98866.72
2023-03-31T23:15:56.428Z,98863.53
2023-03-31T23:18:24.531Z,98861.03
2023-03-31T23:20:52.368Z,98870.69
2023-03-31T23:23:21.465Z,98861.69
2023-03-31T23:25:49.211Z,98861.69
2023-03-31T23:28:16.983Z,98854.03
2023-03-31T23:30:56.405Z,98860.06
2023-03-31T23:33:24.417Z,98857.25
2023-03-31T23:35:53.630Z,98858.59
2023-03-31T23:38:22.824Z,98847.56
2023-03-31T23:40:50.602Z,98847.19
2023-03-31T23:43:18.293Z,98855.03
2023-03-31T23:45:46.106Z,98852.53
2023-03-31T23:48:13.905Z,98854.72
2023-03-31T23:50:41.751Z,98839.56
2023-03-31T23:53:09.396Z,98837.75
2023-03-31T23:55:38.649Z,98834.75
2023-03-31T23:58:06.673Z,98834.38
